createdAt,value
2023-01-08T00:01:18.605Z,8.59
2023-01-08T00:03:37.023Z,8.63
2023-01-08T00:05:54.878Z,8.67
2023-01-08T00:08:13.018Z,8.71
2023-01-08T00:10:30.077Z,8.69
2023-01-08T00:12:47.125Z,8.68
2023-01-08T00:15:04.553Z,8.71
2023-01-08T00:17:22.076Z,8.72
2023-01-08T00:19:39.014Z,8.74
2023-01-08T00:21:56.110Z,8.80
2023-01-08T00:24:13.570Z,8.98
2023-01-08T00:26:31.590Z,8.91
2023-01-08T00:28:48.723Z,8.88
2023-01-08T00:31:05.918Z,8.87
2023-01-08T00:33:23.286Z,8.86
2023-01-08T00:35:40.350Z,8.89
2023-01-08T00:37:57.888Z,8.99
2023-01-08T00:40:15.926Z,8.96
2023-01-08T00:42:32.966Z,8.94
2023-01-08T00:44:49.930Z,8.96
2023-01-08T00:47:06.852Z,8.99
2023-01-08T00:49:24.029Z,8.96
2023-01-08T00:51:41.118Z,8.93
2023-01-08T00:53:58.440Z,8.92
2023-01-08T00:56:15.517Z,8.90
2023-01-08T00:58:33.569Z,8.93
2023-01-08T01:00:50.667Z,8.94
2023-01-08T01:03:07.878Z,9.02
2023-01-08T01:05:24.890Z,8.98
2023-01-08T01:07:42.273Z,8.96
2023-01-08T01:09:59.583Z,8.91
2023-01-08T01:12:16.620Z,8.93
2023-01-08T01:14:33.948Z,8.94
2023-01-08T01:16:51.462Z,8.96
2023-01-08T01:19:08.456Z,8.92
2023-01-08T01:21:26.679Z,9.02
2023-01-08T01:23:43.997Z,8.96
2023-01-08T01:26:01.002Z,8.95
2023-01-08T01:28:18.056Z,8.92
2023-01-08T01:30:35.306Z,8.94
2023-01-08T01:32:52.383Z,8.88
2023-01-08T01:35:10.654Z,8.83
2023-01-08T01:37:27.884Z,8.82
2023-01-08T01:39:45.695Z,8.82
2023-01-08T01:42:02.910Z,8.84
2023-01-08T01:44:20.246Z,8.86
2023-01-08T01:46:39.430Z,8.84
2023-01-08T01:48:56.505Z,8.81
2023-01-08T01:51:14.640Z,8.85
2023-01-08T01:53:31.742Z,8.85
2023-01-08T01:55:48.833Z,8.83
2023-01-08T01:58:06.040Z,8.85
2023-01-08T02:00:23.353Z,8.85
2023-01-08T02:02:40.707Z,8.85
2023-01-08T02:04:58.730Z,8.83
2023-01-08T02:07:15.743Z,8.81
2023-01-08T02:09:36.020Z,8.82
2023-01-08T02:11:53.097Z,8.84
2023-01-08T02:14:10.236Z,8.84
2023-01-08T02:16:27.221Z,8.83
2023-01-08T02:18:44.598Z,8.83
2023-01-08T02:21:02.127Z,8.79
2023-01-08T02:23:19.998Z,8.76
2023-01-08T02:25:37.285Z,8.77
2023-01-08T02:27:54.432Z,8.79
2023-01-08T02:30:11.465Z,8.78
2023-01-08T02:32:28.919Z,8.76
2023-01-08T02:34:46.046Z,8.75
2023-01-08T02:37:03.808Z,8.74
2023-01-08T02:39:22.094Z,8.72
2023-01-08T02:41:39.147Z,8.70
2023-01-08T02:43:56.449Z,8.72
2023-01-08T02:46:13.518Z,8.71
2023-01-08T02:48:30.784Z,8.70
2023-01-08T02:50:48.049Z,8.69
2023-01-08T02:53:06.333Z,8.66
2023-01-08T02:55:23.497Z,8.64
2023-01-08T02:57:40.578Z,8.60
2023-01-08T02:59:57.589Z,8.60
2023-01-08T03:02:15.046Z,8.57
2023-01-08T03:04:32.225Z,8.57
2023-01-08T03:06:49.307Z,8.56
2023-01-08T03:09:07.625Z,8.54
2023-01-08T03:11:25.714Z,8.53
2023-01-08T03:13:42.780Z,8.52
2023-01-08T03:16:01.721Z,8.49
2023-01-08T03:18:18.784Z,8.50
2023-01-08T03:20:36.265Z,8.49
2023-01-08T03:22:53.509Z,8.48
2023-01-08T03:25:10.537Z,8.46
2023-01-08T03:27:27.772Z,8.46
2023-01-08T03:29:45.101Z,8.47
2023-01-08T03:32:02.337Z,8.48
2023-01-08T03:34:19.410Z,8.46
2023-01-08T03:36:36.403Z,8.49
2023-01-08T03:38:53.559Z,8.49
2023-01-08T03:41:10.632Z,8.47
2023-01-08T03:43:27.565Z,8.45
2023-01-08T03:45:45.557Z,8.45
2023-01-08T03:48:03.755Z,8.47
2023-01-08T03:50:20.771Z,8.46
2023-01-08T03:52:38.244Z,8.45
2023-01-08T03:54:55.500Z,8.39
2023-01-08T03:57:12.535Z,8.38
2023-01-08T03:59:30.719Z,8.40
2023-01-08T04:01:47.759Z,8.38
2023-01-08T04:04:04.922Z,8.37
2023-01-08T04:06:21.909Z,8.36
2023-01-08T04:08:41.305Z,8.35
2023-01-08T04:10:58.603Z,8.31
2023-01-08T04:13:15.922Z,8.33
2023-01-08T04:15:34.038Z,8.33
2023-01-08T04:17:51.291Z,8.32
2023-01-08T04:20:08.225Z,8.31
2023-01-08T04:22:25.113Z,8.31
2023-01-08T04:24:43.198Z,8.31
2023-01-08T04:27:00.206Z,8.30
2023-01-08T04:29:17.258Z,8.31
2023-01-08T04:31:34.304Z,8.31
2023-01-08T04:33:51.648Z,8.32
2023-01-08T04:36:08.933Z,8.34
2023-01-08T04:38:25.864Z,8.33
2023-01-08T04:40:42.766Z,8.34
2023-01-08T04:43:00.804Z,8.38
2023-01-08T04:45:17.726Z,8.37
2023-01-08T04:47:35.744Z,8.37
2023-01-08T04:49:52.785Z,8.34
2023-01-08T04:52:10.145Z,8.35
2023-01-08T04:54:27.383Z,8.32
2023-01-08T04:56:45.424Z,8.32
2023-01-08T04:59:02.475Z,8.27
2023-01-08T05:01:20.727Z,8.28
2023-01-08T05:03:37.798Z,8.23
2023-01-08T05:05:54.744Z,8.23
2023-01-08T05:08:11.810Z,8.24
2023-01-08T05:10:29.128Z,8.29
2023-01-08T05:12:46.177Z,8.24
2023-01-08T05:15:03.210Z,8.23
2023-01-08T05:17:20.531Z,8.20
2023-01-08T05:19:38.428Z,8.23
2023-01-08T05:21:55.511Z,8.23
2023-01-08T05:24:12.802Z,8.25
2023-01-08T05:26:29.733Z,8.30
2023-01-08T05:28:47.065Z,8.28
2023-01-08T05:31:04.238Z,8.32
2023-01-08T05:33:21.511Z,8.33
2023-01-08T05:35:38.807Z,8.33
2023-01-08T05:37:56.123Z,8.34
2023-01-08T05:40:14.664Z,8.33
2023-01-08T05:42:31.905Z,8.34
2023-01-08T05:44:49.248Z,8.32
2023-01-08T05:47:06.587Z,8.34
2023-01-08T05:49:26.340Z,8.33
2023-01-08T05:51:43.369Z,8.32
2023-01-08T05:54:00.452Z,8.31
2023-01-08T05:56:17.829Z,8.30
2023-01-08T05:58:35.898Z,8.30
2023-01-08T06:00:53.689Z,8.32
2023-01-08T06:03:11.069Z,8.29
2023-01-08T06:05:28.456Z,8.29
2023-01-08T06:07:45.465Z,8.26
2023-01-08T06:10:02.496Z,8.20
2023-01-08T06:12:20.750Z,8.20
2023-01-08T06:14:37.814Z,8.20
2023-01-08T06:16:54.853Z,8.19
2023-01-08T06:19:11.860Z,8.18
2023-01-08T06:21:28.932Z,8.18
2023-01-08T06:23:47.233Z,8.18
2023-01-08T06:26:04.568Z,8.19
2023-01-08T06:28:21.555Z,8.19
2023-01-08T06:30:39.234Z,8.20
2023-01-08T06:32:56.147Z,8.22
2023-01-08T06:35:14.069Z,8.30
2023-01-08T06:37:31.422Z,8.29
2023-01-08T06:39:48.390Z,8.29
2023-01-08T06:42:05.366Z,8.32
2023-01-08T06:44:22.646Z,8.34
2023-01-08T06:46:39.698Z,8.36
2023-01-08T06:48:57.093Z,8.39
2023-01-08T06:51:14.225Z,8.38
2023-01-08T06:53:31.396Z,8.35
2023-01-08T06:55:48.499Z,8.39
2023-01-08T06:58:05.777Z,8.38
2023-01-08T07:00:23.033Z,8.37
2023-01-08T07:02:40.210Z,8.36
2023-01-08T07:04:57.277Z,8.35
2023-01-08T07:07:14.504Z,8.36
2023-01-08T07:09:31.785Z,8.33
2023-01-08T07:11:49.795Z,8.34
2023-01-08T07:14:07.041Z,8.33
2023-01-08T07:16:24.209Z,8.31
2023-01-08T07:18:41.617Z,8.30
2023-01-08T07:20:58.633Z,8.30
2023-01-08T07:23:17.414Z,8.27
2023-01-08T07:25:34.298Z,8.28
2023-01-08T07:27:51.629Z,8.30
2023-01-08T07:30:18.014Z,8.31
2023-01-08T07:32:41.783Z,8.32
2023-01-08T07:34:58.832Z,8.35
2023-01-08T07:37:15.743Z,8.36
2023-01-08T07:39:32.981Z,8.36
2023-01-08T07:41:50.233Z,8.33
2023-01-08T07:44:07.279Z,8.36
2023-01-08T07:46:25.623Z,8.37
2023-01-08T07:48:42.648Z,8.36
2023-01-08T07:50:59.634Z,8.31
2023-01-08T07:53:16.674Z,8.30
2023-01-08T07:55:34.009Z,8.35
2023-01-08T07:57:51.018Z,8.35
2023-01-08T08:00:09.357Z,8.35
2023-01-08T08:02:26.807Z,8.31
2023-01-08T08:04:44.960Z,8.32
2023-01-08T08:07:02.242Z,8.31
2023-01-08T08:09:20.165Z,8.31
2023-01-08T08:11:37.573Z,8.29
2023-01-08T08:13:56.637Z,8.26
2023-01-08T08:16:13.962Z,8.25
2023-01-08T08:18:31.363Z,8.23
2023-01-08T08:20:49.106Z,8.22
2023-01-08T08:23:06.239Z,8.23
2023-01-08T08:25:23.320Z,8.25
2023-01-08T08:27:40.618Z,8.29
2023-01-08T08:29:57.968Z,8.28
2023-01-08T08:32:14.936Z,8.29
2023-01-08T08:34:32.070Z,8.29
2023-01-08T08:36:50.097Z,8.32
2023-01-08T08:39:08.435Z,8.33
2023-01-08T08:41:25.410Z,8.36
2023-01-08T08:43:43.718Z,8.39
2023-01-08T08:46:00.666Z,8.39
2023-01-08T08:48:17.604Z,8.39
2023-01-08T08:50:34.786Z,8.39
2023-01-08T08:52:51.901Z,8.39
2023-01-08T08:55:10.257Z,8.39
2023-01-08T08:57:27.276Z,8.41
2023-01-08T08:59:44.624Z,8.42
2023-01-08T09:02:01.797Z,8.42
2023-01-08T09:04:19.882Z,8.44
2023-01-08T09:06:36.778Z,8.44
2023-01-08T09:08:54.024Z,8.46
2023-01-08T09:11:13.520Z,8.45
2023-01-08T09:13:31.529Z,8.47
2023-01-08T09:15:48.670Z,8.50
2023-01-08T09:18:06.995Z,8.48
2023-01-08T09:20:24.060Z,8.47
2023-01-08T09:22:41.468Z,8.49
2023-01-08T09:24:58.495Z,8.49
2023-01-08T09:27:15.812Z,8.55
2023-01-08T09:29:32.838Z,8.57
2023-01-08T09:31:50.205Z,8.56
2023-01-08T09:34:07.230Z,8.59
2023-01-08T09:36:24.557Z,8.61
2023-01-08T09:38:42.815Z,8.63
2023-01-08T09:41:00.120Z,8.62
2023-01-08T09:43:17.075Z,8.64
2023-01-08T09:45:34.019Z,8.65
2023-01-08T09:47:51.344Z,8.65
2023-01-08T09:50:08.404Z,8.72
2023-01-08T09:52:25.620Z,8.71
2023-01-08T09:54:42.887Z,8.76
2023-01-08T09:57:00.764Z,8.79
2023-01-08T09:59:17.788Z,8.83
2023-01-08T10:01:36.348Z,8.86
2023-01-08T10:03:53.775Z,8.90
2023-01-08T10:06:10.892Z,8.96
2023-01-08T10:08:27.982Z,9.00
2023-01-08T10:10:45.235Z,9.07
2023-01-08T10:13:02.490Z,9.10
2023-01-08T10:15:19.563Z,9.17
2023-01-08T10:17:36.592Z,9.18
2023-01-08T10:19:53.871Z,9.22
2023-01-08T10:22:11.159Z,9.25
2023-01-08T10:24:28.133Z,9.35
2023-01-08T10:26:45.200Z,9.39
2023-01-08T10:29:02.210Z,9.41
2023-01-08T10:31:19.602Z,9.48
2023-01-08T10:33:36.833Z,9.47
2023-01-08T10:35:54.067Z,9.47
2023-01-08T10:38:12.047Z,9.45
2023-01-08T10:40:29.416Z,9.47
2023-01-08T10:42:47.699Z,9.51
2023-01-08T10:45:07.579Z,9.51
2023-01-08T10:47:24.927Z,9.53
2023-01-08T10:49:42.302Z,9.51
2023-01-08T10:51:59.272Z,9.48
2023-01-08T10:54:16.594Z,9.57
2023-01-08T10:56:33.556Z,9.46
2023-01-08T10:58:51.810Z,9.43
2023-01-08T11:01:09.231Z,9.45
2023-01-08T11:03:26.217Z,9.37
2023-01-08T11:05:43.505Z,9.35
2023-01-08T11:08:00.802Z,9.29
2023-01-08T11:10:17.817Z,9.31
2023-01-08T11:12:35.143Z,9.33
2023-01-08T11:14:52.313Z,9.41
2023-01-08T11:17:09.525Z,9.35
2023-01-08T11:19:26.528Z,9.38
2023-01-08T11:21:44.750Z,9.38
2023-01-08T11:24:02.129Z,9.39
2023-01-08T11:26:21.901Z,9.38
2023-01-08T11:28:38.960Z,9.42
2023-01-08T11:30:56.107Z,9.45
2023-01-08T11:33:16.406Z,9.49
2023-01-08T11:35:33.427Z,9.54
2023-01-08T11:37:51.530Z,9.60
2023-01-08T11:40:08.804Z,9.63
2023-01-08T11:42:27.323Z,9.61
2023-01-08T11:44:45.144Z,9.60
2023-01-08T11:47:02.479Z,9.66
2023-01-08T11:49:19.477Z,9.67
2023-01-08T11:51:36.576Z,9.69
2023-01-08T11:53:53.684Z,9.70
2023-01-08T11:56:11.006Z,9.65
2023-01-08T11:58:29.560Z,9.62
2023-01-08T12:00:46.700Z,9.62
2023-01-08T12:03:04.851Z,9.59
2023-01-08T12:05:21.825Z,9.54
2023-01-08T12:07:39.844Z,9.51
2023-01-08T12:09:56.926Z,9.52
2023-01-08T12:12:15.209Z,9.49
2023-01-08T12:14:32.548Z,9.60
2023-01-08T12:16:52.199Z,9.50
2023-01-08T12:19:09.231Z,9.47
2023-01-08T12:21:27.442Z,9.40
2023-01-08T12:23:44.471Z,9.38
2023-01-08T12:26:02.642Z,9.37
2023-01-08T12:28:19.774Z,9.32
2023-01-08T12:30:37.156Z,9.35
2023-01-08T12:32:54.377Z,9.30
2023-01-08T12:35:11.413Z,9.31
2023-01-08T12:37:28.774Z,9.30
2023-01-08T12:39:45.871Z,9.37
2023-01-08T12:42:03.082Z,9.33
2023-01-08T12:44:20.139Z,9.31
2023-01-08T12:46:37.153Z,9.37
2023-01-08T12:48:54.463Z,9.39
2023-01-08T12:51:11.586Z,9.45
2023-01-08T12:53:28.661Z,9.46
2023-01-08T12:55:46.609Z,9.43
2023-01-08T12:58:04.919Z,9.46
2023-01-08T13:00:22.813Z,9.47
2023-01-08T13:02:39.971Z,9.48
2023-01-08T13:04:57.295Z,9.50
2023-01-08T13:07:14.438Z,9.52
2023-01-08T13:09:31.678Z,9.57
2023-01-08T13:11:48.978Z,9.66
2023-01-08T13:14:06.025Z,9.69
2023-01-08T13:16:23.407Z,9.69
2023-01-08T13:18:40.634Z,9.73
2023-01-08T13:20:57.937Z,9.73
2023-01-08T13:23:14.850Z,9.75
2023-01-08T13:25:32.235Z,9.84
2023-01-08T13:27:49.244Z,9.82
2023-01-08T13:30:07.169Z,9.76
2023-01-08T13:32:24.177Z,9.82
2023-01-08T13:34:41.347Z,9.83
2023-01-08T13:36:59.664Z,9.81
2023-01-08T13:39:16.733Z,9.89
2023-01-08T13:41:33.851Z,9.87
2023-01-08T13:43:50.801Z,9.88
2023-01-08T13:46:09.184Z,9.87
2023-01-08T13:48:26.421Z,9.89
2023-01-08T13:50:43.421Z,9.87
2023-01-08T13:53:00.800Z,9.82
2023-01-08T13:55:19.067Z,9.83
2023-01-08T13:57:36.125Z,9.82
2023-01-08T13:59:53.167Z,9.80
2023-01-08T14:02:11.282Z,9.80
2023-01-08T14:04:28.558Z,9.79
2023-01-08T14:06:46.848Z,9.76
2023-01-08T14:09:03.834Z,9.80
2023-01-08T14:11:21.209Z,9.81
2023-01-08T14:13:40.008Z,9.78
2023-01-08T14:15:56.935Z,9.76
2023-01-08T14:18:14.188Z,9.77
2023-01-08T14:20:32.671Z,9.81
2023-01-08T14:22:49.881Z,9.72
2023-01-08T14:25:07.141Z,9.68
2023-01-08T14:27:24.416Z,9.67
2023-01-08T14:29:41.469Z,9.66
2023-01-08T14:31:58.579Z,9.61
2023-01-08T14:34:15.869Z,9.57
2023-01-08T14:36:33.106Z,9.54
2023-01-08T14:38:50.134Z,9.52
2023-01-08T14:41:07.332Z,9.49
2023-01-08T14:43:25.633Z,9.49
2023-01-08T14:45:42.794Z,9.56
2023-01-08T14:48:00.059Z,9.50
2023-01-08T14:50:17.116Z,9.45
2023-01-08T14:52:34.335Z,9.47
2023-01-08T14:54:52.718Z,9.44
2023-01-08T14:57:10.028Z,9.43
2023-01-08T14:59:26.939Z,9.41
2023-01-08T15:01:44.281Z,9.37
2023-01-08T15:04:01.517Z,9.36
2023-01-08T15:06:18.816Z,9.31
2023-01-08T15:08:35.803Z,9.31
2023-01-08T15:10:52.742Z,9.28
2023-01-08T15:13:10.720Z,9.27
2023-01-08T15:15:27.780Z,9.27
2023-01-08T15:17:45.056Z,9.24
2023-01-08T15:20:03.084Z,9.23
2023-01-08T15:22:20.355Z,9.23
2023-01-08T15:24:37.692Z,9.22
2023-01-08T15:26:54.795Z,9.20
2023-01-08T15:29:12.002Z,9.20
2023-01-08T15:31:29.025Z,9.14
2023-01-08T15:33:46.402Z,9.09
2023-01-08T15:36:03.731Z,9.01
2023-01-08T15:38:21.034Z,8.89
2023-01-08T15:40:38.155Z,8.82
2023-01-08T15:42:55.463Z,8.70
2023-01-08T15:45:12.362Z,8.63
2023-01-08T15:47:29.571Z,8.47
2023-01-08T15:49:46.557Z,8.41
2023-01-08T15:52:03.628Z,8.36
2023-01-08T15:54:21.604Z,8.33
2023-01-08T15:56:38.841Z,8.26
2023-01-08T15:58:55.831Z,8.20
2023-01-08T16:01:14.103Z,8.15
2023-01-08T16:03:31.226Z,8.14
2023-01-08T16:05:49.346Z,8.12
2023-01-08T16:08:06.265Z,8.08
2023-01-08T16:10:23.548Z,8.06
2023-01-08T16:12:41.515Z,8.05
2023-01-08T16:14:58.736Z,8.09
2023-01-08T16:17:15.697Z,8.09
2023-01-08T16:19:33.046Z,8.06
2023-01-08T16:21:51.196Z,8.06
2023-01-08T16:24:08.136Z,8.06
2023-01-08T16:26:25.194Z,8.07
2023-01-08T16:28:42.521Z,8.03
2023-01-08T16:30:59.449Z,7.98
2023-01-08T16:33:16.405Z,7.95
2023-01-08T16:35:35.932Z,7.91
2023-01-08T16:37:54.182Z,7.87
2023-01-08T16:40:13.310Z,7.81
2023-01-08T16:42:30.679Z,7.70
2023-01-08T16:44:47.717Z,7.62
2023-01-08T16:47:05.114Z,7.55
2023-01-08T16:49:23.141Z,7.56
2023-01-08T16:51:40.610Z,7.55
2023-01-08T16:53:58.219Z,7.51
2023-01-08T16:56:16.164Z,7.49
2023-01-08T16:58:33.159Z,7.47
2023-01-08T17:00:50.131Z,7.48
2023-01-08T17:03:07.193Z,7.46
2023-01-08T17:05:24.625Z,7.47
2023-01-08T17:07:41.570Z,7.47
2023-01-08T17:09:58.573Z,7.43
2023-01-08T17:12:15.563Z,7.39
2023-01-08T17:14:33.036Z,7.32
2023-01-08T17:16:50.076Z,7.23
2023-01-08T17:19:08.012Z,7.21
2023-01-08T17:21:24.973Z,7.19
2023-01-08T17:23:42.960Z,7.20
2023-01-08T17:25:59.930Z,7.22
2023-01-08T17:28:16.883Z,7.25
2023-01-08T17:30:33.817Z,7.28
2023-01-08T17:32:51.043Z,7.29
2023-01-08T17:35:08.047Z,7.32
2023-01-08T17:37:26.333Z,7.31
2023-01-08T17:39:46.368Z,7.35
2023-01-08T17:42:03.516Z,7.38
2023-01-08T17:44:20.536Z,7.40
2023-01-08T17:46:37.566Z,7.40
2023-01-08T17:48:54.622Z,7.41
2023-01-08T17:51:11.703Z,7.42
2023-01-08T17:53:29.635Z,7.45
2023-01-08T17:55:46.702Z,7.45
2023-01-08T17:58:04.013Z,7.48
2023-01-08T18:00:21.474Z,7.47
2023-01-08T18:02:39.456Z,7.43
2023-01-08T18:04:56.762Z,7.41
2023-01-08T18:07:14.795Z,7.39
2023-01-08T18:09:32.935Z,7.45
2023-01-08T18:11:50.299Z,7.46
2023-01-08T18:14:07.354Z,7.45
2023-01-08T18:16:24.715Z,7.46
2023-01-08T18:18:41.919Z,7.52
2023-01-08T18:20:59.467Z,7.51
2023-01-08T18:23:16.805Z,7.50
2023-01-08T18:25:33.772Z,7.47
2023-01-08T18:27:51.737Z,7.48
2023-01-08T18:30:08.685Z,7.50
2023-01-08T18:32:27.067Z,7.47
2023-01-08T18:34:44.151Z,7.52
2023-01-08T18:37:01.275Z,7.57
2023-01-08T18:39:18.335Z,7.56
2023-01-08T18:41:35.742Z,7.53
2023-01-08T18:43:52.878Z,7.54
2023-01-08T18:46:10.336Z,7.54
2023-01-08T18:48:28.434Z,7.55
2023-01-08T18:50:45.402Z,7.54
2023-01-08T18:53:03.347Z,7.56
2023-01-08T18:55:20.817Z,7.57
2023-01-08T18:57:37.824Z,7.58
2023-01-08T18:59:55.070Z,7.57
2023-01-08T19:02:13.602Z,7.63
2023-01-08T19:04:30.730Z,7.59
2023-01-08T19:06:47.800Z,7.55
2023-01-08T19:09:04.879Z,7.57
2023-01-08T19:11:22.168Z,7.51
2023-01-08T19:13:41.728Z,7.44
2023-01-08T19:16:01.775Z,7.44
2023-01-08T19:18:19.000Z,7.47
2023-01-08T19:20:36.036Z,7.47
2023-01-08T19:22:54.020Z,7.52
2023-01-08T19:25:11.429Z,7.56
2023-01-08T19:27:28.661Z,7.52
2023-01-08T19:29:46.591Z,7.53
2023-01-08T19:32:03.770Z,7.53
2023-01-08T19:34:20.854Z,7.53
2023-01-08T19:36:38.072Z,7.54
2023-01-08T19:38:55.350Z,7.56
2023-01-08T19:41:12.321Z,7.60
2023-01-08T19:43:29.294Z,7.58
2023-01-08T19:45:46.343Z,7.62
2023-01-08T19:48:03.286Z,7.64
2023-01-08T19:50:20.361Z,7.67
2023-01-08T19:52:37.640Z,7.70
2023-01-08T19:54:55.076Z,7.74
2023-01-08T19:57:12.167Z,7.78
2023-01-08T19:59:29.180Z,7.79
2023-01-08T20:01:47.418Z,7.79
2023-01-08T20:04:04.538Z,7.81
2023-01-08T20:06:21.872Z,7.83
2023-01-08T20:08:38.997Z,7.85
2023-01-08T20:10:56.299Z,7.86
2023-01-08T20:13:13.329Z,7.86
2023-01-08T20:15:30.386Z,7.86
2023-01-08T20:17:47.733Z,7.83
2023-01-08T20:20:05.991Z,7.85
2023-01-08T20:22:23.098Z,7.83
2023-01-08T20:24:40.143Z,7.83
2023-01-08T20:26:59.993Z,7.83
2023-01-08T20:29:17.043Z,7.83
2023-01-08T20:31:34.126Z,7.83
2023-01-08T20:33:51.237Z,7.83
2023-01-08T20:36:08.351Z,7.82
2023-01-08T20:38:25.489Z,7.81
2023-01-08T20:40:42.600Z,7.80
2023-01-08T20:42:59.669Z,7.83
2023-01-08T20:45:16.730Z,7.84
2023-01-08T20:47:34.012Z,7.82
2023-01-08T20:49:51.082Z,7.83
2023-01-08T20:52:08.034Z,7.87
2023-01-08T20:54:25.291Z,7.89
2023-01-08T20:56:42.564Z,7.90
2023-01-08T20:59:00.942Z,7.90
2023-01-08T21:01:18.092Z,7.91
2023-01-08T21:03:36.089Z,7.90
2023-01-08T21:05:53.485Z,7.90
2023-01-08T21:08:10.602Z,7.90
2023-01-08T21:10:27.938Z,7.90
2023-01-08T21:12:45.155Z,7.90
2023-01-08T21:15:02.497Z,7.91
2023-01-08T21:17:19.417Z,7.91
2023-01-08T21:19:37.511Z,7.90
2023-01-08T21:21:57.176Z,7.89
2023-01-08T21:24:14.157Z,7.88
2023-01-08T21:26:31.520Z,7.90
2023-01-08T21:28:49.861Z,7.91
2023-01-08T21:31:07.156Z,7.89
2023-01-08T21:33:24.466Z,7.90
2023-01-08T21:35:41.868Z,7.90
2023-01-08T21:37:59.845Z,7.89
2023-01-08T21:40:16.945Z,7.90
2023-01-08T21:42:34.066Z,7.90
2023-01-08T21:44:51.053Z,7.91
2023-01-08T21:47:08.128Z,7.91
2023-01-08T21:49:25.418Z,7.91
2023-01-08T21:51:44.662Z,7.94
2023-01-08T21:54:07.507Z,7.93
2023-01-08T21:56:24.529Z,7.94
2023-01-08T21:58:42.424Z,7.94
2023-01-08T22:00:59.741Z,7.94
2023-01-08T22:03:17.830Z,7.94
2023-01-08T22:05:34.910Z,7.92
2023-01-08T22:07:51.962Z,7.93
2023-01-08T22:10:08.955Z,7.93
2023-01-08T22:12:28.124Z,7.94
2023-01-08T22:14:45.135Z,7.93
2023-01-08T22:17:02.112Z,7.94
2023-01-08T22:19:20.377Z,7.93
2023-01-08T22:21:37.268Z,7.93
2023-01-08T22:23:54.257Z,7.96
2023-01-08T22:26:11.219Z,7.91
2023-01-08T22:28:28.594Z,7.90
2023-01-08T22:30:47.224Z,7.90
2023-01-08T22:33:04.410Z,7.92
2023-01-08T22:35:21.533Z,7.90
2023-01-08T22:37:38.946Z,7.89
2023-01-08T22:39:55.849Z,7.87
2023-01-08T22:42:13.957Z,7.90
2023-01-08T22:44:30.950Z,7.90
2023-01-08T22:46:48.905Z,7.90
2023-01-08T22:49:05.969Z,7.88
2023-01-08T22:51:26.422Z,7.86
2023-01-08T22:53:47.425Z,7.83
2023-01-08T22:56:04.409Z,7.83
2023-01-08T22:58:21.794Z,7.82
2023-01-08T23:00:38.749Z,7.81
2023-01-08T23:02:55.975Z,7.83
2023-01-08T23:05:13.042Z,7.83
2023-01-08T23:07:30.121Z,7.80
2023-01-08T23:09:47.152Z,7.81
2023-01-08T23:12:04.440Z,7.83
2023-01-08T23:14:21.533Z,7.82
2023-01-08T23:16:38.485Z,7.85
2023-01-08T23:18:56.336Z,7.84
2023-01-08T23:21:14.582Z,7.83
2023-01-08T23:23:31.651Z,7.81
2023-01-08T23:25:48.921Z,7.81
2023-01-08T23:28:06.319Z,7.79
2023-01-08T23:30:24.209Z,7.78
2023-01-08T23:32:41.530Z,7.87
2023-01-08T23:34:58.777Z,7.92
2023-01-08T23:37:16.083Z,7.99
2023-01-08T23:39:33.133Z,7.94
2023-01-08T23:41:50.168Z,7.94
2023-01-08T23:44:07.142Z,7.87
2023-01-08T23:46:26.301Z,7.90
2023-01-08T23:48:43.372Z,7.87
2023-01-08T23:51:00.360Z,7.90
2023-01-08T23:53:17.605Z,7.87
2023-01-08T23:55:34.695Z,7.82
2023-01-08T23:57:51.979Z,7.82
